createdAt,value
2016-05-10T00:00:10.749Z,1014.1
2016-05-10T00:01:10.767Z,1014.12
2016-05-10T00:02:10.801Z,1014.07
2016-05-10T00:03:10.819Z,1014.06
2016-05-10T00:04:10.838Z,1014.07
2016-05-10T00:05:10.857Z,1014.1
2016-05-10T00:06:10.890Z,1014.05
2016-05-10T00:07:10.908Z,1014.09
2016-05-10T00:08:10.927Z,1014.04
2016-05-10T00:09:10.945Z,1014.06
2016-05-10T00:10:10.979Z,1014.02
2016-05-10T00:11:10.998Z,1014.08
2016-05-10T00:12:11.016Z,1014.05
2016-05-10T00:14:11.136Z,1014.03
2016-05-10T00:15:11.196Z,1014.05
2016-05-10T00:16:11.255Z,1014.05
2016-05-10T00:17:11.315Z,1014.03
2016-05-10T00:18:11.357Z,1013.99
2016-05-10T00:19:11.405Z,1013.99
2016-05-10T00:20:11.437Z,1013.91
2016-05-10T00:21:11.471Z,1013.96
2016-05-10T00:22:11.504Z,1013.97
2016-05-10T00:23:11.546Z,1013.92
2016-05-10T00:24:11.570Z,1013.88
2016-05-10T00:25:11.594Z,1013.92
2016-05-10T00:26:11.617Z,1013.88
2016-05-10T00:27:11.656Z,1013.88
2016-05-10T00:28:11.678Z,1013.88
2016-05-10T00:30:11.719Z,1013.87
2016-05-10T00:31:11.754Z,1013.87
2016-05-10T00:32:11.790Z,1013.9
2016-05-10T00:33:11.793Z,1013.88
2016-05-10T00:34:11.813Z,1013.9
2016-05-10T00:35:11.847Z,1013.89
2016-05-10T00:36:11.867Z,1013.88
2016-05-10T00:37:11.886Z,1013.89
2016-05-10T00:38:11.904Z,1013.87
2016-05-10T00:39:11.939Z,1013.89
2016-05-10T00:40:11.957Z,1013.89
2016-05-10T00:41:11.976Z,1013.84
2016-05-10T00:42:11.994Z,1013.89
2016-05-10T00:43:12.013Z,1013.88
2016-05-10T00:44:12.032Z,1013.88
2016-05-10T00:46:12.084Z,1013.86
2016-05-10T00:47:12.102Z,1013.88
2016-05-10T00:48:12.136Z,1013.89
2016-05-10T00:49:12.155Z,1013.91
2016-05-10T00:50:12.173Z,1013.88
2016-05-10T00:51:12.191Z,1013.89
2016-05-10T00:52:12.209Z,1013.91
2016-05-10T00:53:12.243Z,1013.91
2016-05-10T00:54:12.262Z,1013.92
2016-05-10T00:55:12.280Z,1013.94
2016-05-10T00:56:12.299Z,1013.93
2016-05-10T00:57:12.332Z,1013.93
2016-05-10T00:58:12.351Z,1013.93
2016-05-10T00:59:12.368Z,1013.93
2016-05-10T01:01:12.406Z,1013.91
2016-05-10T01:02:12.439Z,1013.91
2016-05-10T01:03:12.458Z,1013.92
2016-05-10T01:04:12.476Z,1013.9
2016-05-10T01:05:12.495Z,1013.91
2016-05-10T01:06:12.528Z,1013.94
2016-05-10T01:07:12.547Z,1013.88
2016-05-10T01:08:12.565Z,1013.94
2016-05-10T01:09:12.583Z,1013.89
2016-05-10T01:10:12.617Z,1013.9
2016-05-10T01:11:12.636Z,1013.91
2016-05-10T01:12:12.653Z,1013.87
2016-05-10T01:13:12.672Z,1013.84
2016-05-10T01:14:13.019Z,1013.86
2016-05-10T01:15:12.725Z,1013.88
2016-05-10T01:16:12.743Z,1013.84
2016-05-10T01:17:12.761Z,1013.83
2016-05-10T01:18:12.795Z,1013.86
2016-05-10T01:19:12.797Z,1013.86
2016-05-10T01:20:12.832Z,1013.84
2016-05-10T01:21:12.850Z,1013.81
2016-05-10T01:22:12.868Z,1013.85
2016-05-10T01:23:12.887Z,1013.91
2016-05-10T01:24:12.921Z,1013.91
2016-05-10T01:25:12.939Z,1013.9
2016-05-10T01:26:12.957Z,1013.88
2016-05-10T01:27:12.976Z,1013.89
2016-05-10T01:28:13.009Z,1013.87
2016-05-10T01:29:13.028Z,1013.87
2016-05-10T01:30:13.046Z,1013.88
2016-05-10T01:31:13.064Z,1013.87
2016-05-10T01:33:13.117Z,1013.82
2016-05-10T01:34:13.135Z,1013.86
2016-05-10T01:35:13.153Z,1013.82
2016-05-10T01:36:13.172Z,1013.84
2016-05-10T01:37:13.190Z,1013.81
2016-05-10T01:38:13.223Z,1013.83
2016-05-10T01:39:13.242Z,1013.79
2016-05-10T01:40:13.261Z,1013.79
2016-05-10T01:41:13.295Z,1013.75
2016-05-10T01:42:13.297Z,1013.78
2016-05-10T01:43:13.316Z,1013.77
2016-05-10T01:44:13.349Z,1013.74
2016-05-10T01:45:13.367Z,1013.75
2016-05-10T01:46:13.386Z,1013.76
2016-05-10T01:47:13.420Z,1013.76
2016-05-10T01:49:13.457Z,1013.77
2016-05-10T01:50:13.474Z,1013.76
2016-05-10T01:51:13.493Z,1013.77
2016-05-10T01:52:13.511Z,1013.8
2016-05-10T01:53:13.546Z,1013.79
2016-05-10T01:54:13.564Z,1013.76
2016-05-10T01:55:13.582Z,1013.78
2016-05-10T01:56:13.601Z,1013.78
2016-05-10T01:57:13.618Z,1013.8
2016-05-10T01:58:13.669Z,1013.74
2016-05-10T01:59:13.671Z,1013.73
2016-05-10T02:00:13.690Z,1013.72
2016-05-10T02:01:13.707Z,1013.71
2016-05-10T02:02:13.726Z,1013.66
2016-05-10T02:03:13.775Z,1013.69
2016-05-10T02:05:13.796Z,1013.65
2016-05-10T02:06:13.815Z,1013.67
2016-05-10T02:07:13.849Z,1013.67
2016-05-10T02:08:13.867Z,1013.65
2016-05-10T02:09:13.885Z,1013.66
2016-05-10T02:10:13.903Z,1013.67
2016-05-10T02:11:13.922Z,1013.69
2016-05-10T02:12:13.940Z,1013.65
2016-05-10T02:13:13.975Z,1013.65
2016-05-10T02:14:13.992Z,1013.63
2016-05-10T02:15:14.011Z,1013.63
2016-05-10T02:16:14.029Z,1013.62
2016-05-10T02:17:14.063Z,1013.62
2016-05-10T02:18:14.081Z,1013.57
2016-05-10T02:19:14.100Z,1013.6
2016-05-10T02:21:14.136Z,1013.56
2016-05-10T02:22:14.155Z,1013.56
2016-05-10T02:23:14.188Z,1013.55
2016-05-10T02:24:14.207Z,1013.54
2016-05-10T02:25:14.225Z,1013.53
2016-05-10T02:26:14.244Z,1013.53
2016-05-10T02:27:14.262Z,1013.52
2016-05-10T02:28:14.296Z,1013.49
2016-05-10T02:29:14.315Z,1013.51
2016-05-10T02:30:14.332Z,1013.47
2016-05-10T02:31:14.351Z,1013.44
2016-05-10T02:32:14.368Z,1013.45
2016-05-10T02:33:14.403Z,1013.5
2016-05-10T02:34:14.421Z,1013.48
2016-05-10T02:36:14.459Z,1013.45
2016-05-10T02:37:14.492Z,1013.42
2016-05-10T02:38:14.509Z,1013.43
2016-05-10T02:39:14.544Z,1013.46
2016-05-10T02:40:14.547Z,1013.41
2016-05-10T02:41:14.565Z,1013.39
2016-05-10T02:42:14.584Z,1013.37
2016-05-10T02:43:14.617Z,1013.41
2016-05-10T02:44:14.636Z,1013.37
2016-05-10T02:45:14.653Z,1013.37
2016-05-10T02:46:14.673Z,1013.4
2016-05-10T02:47:14.691Z,1013.36
2016-05-10T02:48:14.724Z,1013.4
2016-05-10T02:49:14.744Z,1013.35
2016-05-10T02:50:14.761Z,1013.34
2016-05-10T02:51:14.779Z,1013.33
2016-05-10T02:52:14.798Z,1013.33
2016-05-10T02:53:14.816Z,1013.32
2016-05-10T02:54:14.850Z,1013.32
2016-05-10T02:55:14.869Z,1013.33
2016-05-10T02:56:14.887Z,1013.33
2016-05-10T02:57:14.905Z,1013.34
2016-05-10T02:58:14.923Z,1013.32
2016-05-10T02:59:14.957Z,1013.29
2016-05-10T03:00:14.976Z,1013.28
2016-05-10T03:01:15.009Z,1013.29
2016-05-10T03:02:15.013Z,1013.29
2016-05-10T03:03:15.031Z,1013.28
2016-05-10T03:04:15.065Z,1013.27
2016-05-10T03:05:15.082Z,1013.26
2016-05-10T03:06:15.101Z,1013.28
2016-05-10T03:08:15.137Z,1013.28
2016-05-10T03:09:15.156Z,1013.27
2016-05-10T03:10:15.190Z,1013.27
2016-05-10T03:11:15.208Z,1013.25
2016-05-10T03:12:15.226Z,1013.24
2016-05-10T03:13:15.245Z,1013.23
2016-05-10T03:14:15.592Z,1013.26
2016-05-10T03:15:15.297Z,1013.24
2016-05-10T03:16:15.316Z,1013.25
2016-05-10T03:17:15.333Z,1013.24
2016-05-10T03:18:15.353Z,1013.23
2016-05-10T03:19:15.370Z,1013.28
2016-05-10T03:20:15.388Z,1013.22
2016-05-10T03:21:15.423Z,1013.24
2016-05-10T03:22:15.441Z,1013.25
2016-05-10T03:24:15.477Z,1013.26
2016-05-10T03:25:15.496Z,1013.27
2016-05-10T03:26:15.514Z,1013.23
2016-05-10T03:27:15.549Z,1013.24
2016-05-10T03:28:15.566Z,1013.28
2016-05-10T03:29:15.585Z,1013.26
2016-05-10T03:30:15.604Z,1013.23
2016-05-10T03:31:15.621Z,1013.22
2016-05-10T03:32:15.640Z,1013.21
2016-05-10T03:33:15.674Z,1013.17
2016-05-10T03:34:15.692Z,1013.2
2016-05-10T03:35:15.710Z,1013.25
2016-05-10T03:36:15.729Z,1013.23
2016-05-10T03:37:15.747Z,1013.24
2016-05-10T03:38:15.782Z,1013.28
2016-05-10T03:40:15.817Z,1013.25
2016-05-10T03:41:15.836Z,1013.3
2016-05-10T03:42:15.854Z,1013.26
2016-05-10T03:43:15.873Z,1013.29
2016-05-10T03:44:15.906Z,1013.3
2016-05-10T03:45:15.940Z,1013.28
2016-05-10T03:46:15.943Z,1013.26
2016-05-10T03:47:15.961Z,1013.27
2016-05-10T03:48:15.980Z,1013.26
2016-05-10T03:49:16.014Z,1013.27
2016-05-10T03:50:16.033Z,1013.25
2016-05-10T03:51:16.050Z,1013.26
2016-05-10T03:52:16.083Z,1013.27
2016-05-10T03:53:16.086Z,1013.27
2016-05-10T03:54:16.121Z,1013.26
2016-05-10T03:56:16.158Z,1013.23
2016-05-10T03:57:16.192Z,1013.24
2016-05-10T03:58:16.194Z,1013.22
2016-05-10T03:59:16.227Z,1013.26
2016-05-10T04:00:16.246Z,1013.24
2016-05-10T04:01:16.265Z,1013.21
2016-05-10T04:02:16.283Z,1013.19
2016-05-10T04:03:16.301Z,1013.19
2016-05-10T04:04:16.335Z,1013.21
2016-05-10T04:05:16.353Z,1013.16
2016-05-10T04:06:16.371Z,1013.17
2016-05-10T04:07:16.390Z,1013.18
2016-05-10T04:08:16.409Z,1013.18
2016-05-10T04:09:16.443Z,1013.21
2016-05-10T04:11:16.479Z,1013.16
2016-05-10T04:12:16.498Z,1013.18
2016-05-10T04:13:16.515Z,1013.19
2016-05-10T04:14:16.675Z,1013.18
2016-05-10T04:15:16.568Z,1013.16
2016-05-10T04:16:16.586Z,1013.15
2016-05-10T04:17:16.605Z,1013.09
2016-05-10T04:18:16.623Z,1013.09
2016-05-10T04:19:16.656Z,1013.08
2016-05-10T04:20:16.675Z,1013.07
2016-05-10T04:21:16.693Z,1013.08
2016-05-10T04:22:16.711Z,1013.03
2016-05-10T04:23:16.730Z,1013.05
2016-05-10T04:24:16.749Z,1013.04
2016-05-10T04:25:16.783Z,1013.03
2016-05-10T04:26:16.801Z,1013.03
2016-05-10T04:27:16.819Z,1013.04
2016-05-10T04:28:16.837Z,1013.04
2016-05-10T04:29:16.887Z,1013.03
2016-05-10T04:30:16.890Z,1013.02
2016-05-10T04:31:16.908Z,1013
2016-05-10T04:32:16.927Z,1012.99
2016-05-10T04:33:16.960Z,1013
2016-05-10T04:34:16.978Z,1012.98
2016-05-10T04:35:16.997Z,1012.97
2016-05-10T04:36:17.015Z,1012.99
2016-05-10T04:37:17.034Z,1013
2016-05-10T04:38:17.068Z,1012.98
2016-05-10T04:39:17.085Z,1012.98
2016-05-10T04:40:17.104Z,1012.99
2016-05-10T04:41:17.122Z,1013.01
2016-05-10T04:43:17.175Z,1013.02
2016-05-10T04:44:17.193Z,1013.02
2016-05-10T04:45:17.212Z,1013.01
2016-05-10T04:46:17.245Z,1013.05
2016-05-10T04:47:17.263Z,1013.03
2016-05-10T04:48:17.281Z,1013.09
2016-05-10T04:49:17.300Z,1013.1
2016-05-10T04:50:17.319Z,1013.11
2016-05-10T04:51:17.353Z,1013.1
2016-05-10T04:52:17.370Z,1013.13
2016-05-10T04:53:17.388Z,1013.18
2016-05-10T04:54:17.407Z,1013.15
2016-05-10T04:55:17.441Z,1013.14
2016-05-10T04:56:17.460Z,1013.15
2016-05-10T04:57:17.477Z,1013.23
2016-05-10T04:59:17.530Z,1013.23
2016-05-10T05:00:17.564Z,1013.22
2016-05-10T05:01:17.583Z,1013.25
2016-05-10T05:02:17.601Z,1013.24
2016-05-10T05:03:17.635Z,1013.18
2016-05-10T05:04:17.652Z,1013.18
2016-05-10T05:05:17.687Z,1013.22
2016-05-10T05:06:17.705Z,1013.23
2016-05-10T05:07:17.739Z,1013.24
2016-05-10T05:08:17.757Z,1013.23
2016-05-10T05:09:17.791Z,1013.26
2016-05-10T05:10:17.809Z,1013.29
2016-05-10T05:11:17.844Z,1013.24
2016-05-10T05:12:17.862Z,1013.26
2016-05-10T05:13:17.895Z,1013.29
2016-05-10T05:15:17.948Z,1013.25
2016-05-10T05:16:17.981Z,1013.26
2016-05-10T05:17:18.001Z,1013.22
2016-05-10T05:18:18.034Z,1013.24
2016-05-10T05:19:18.053Z,1013.26
2016-05-10T05:20:18.086Z,1013.26
2016-05-10T05:21:18.120Z,1013.24
2016-05-10T05:22:18.139Z,1013.21
2016-05-10T05:23:18.172Z,1013.26
2016-05-10T05:24:18.191Z,1013.27
2016-05-10T05:25:18.225Z,1013.27
2016-05-10T05:26:18.259Z,1013.24
2016-05-10T05:27:18.277Z,1013.28
2016-05-10T05:28:18.311Z,1013.21
2016-05-10T05:29:18.469Z,1013.26
2016-05-10T05:31:18.397Z,1013.25
2016-05-10T05:32:18.431Z,1013.22
2016-05-10T05:33:18.450Z,1013.22
2016-05-10T05:34:18.484Z,1013.16
2016-05-10T05:35:18.518Z,1013.27
2016-05-10T05:36:18.551Z,1013.21
2016-05-10T05:37:18.570Z,1013.16
2016-05-10T05:38:18.604Z,1013.17
2016-05-10T05:39:18.637Z,1013.25
2016-05-10T05:40:18.671Z,1013.24
2016-05-10T05:41:18.690Z,1013.2
2016-05-10T05:42:18.724Z,1013.22
2016-05-10T05:43:18.757Z,1013.29
2016-05-10T05:44:18.839Z,1013.2
2016-05-10T05:46:18.844Z,1013.26
2016-05-10T05:47:18.878Z,1013.24
2016-05-10T05:48:18.912Z,1013.23
2016-05-10T05:49:18.945Z,1013.19
2016-05-10T05:50:18.981Z,1013.23
2016-05-10T05:51:18.998Z,1013.2
2016-05-10T05:52:19.031Z,1013.22
2016-05-10T05:53:19.066Z,1013.17
2016-05-10T05:54:19.100Z,1013.18
2016-05-10T05:55:19.118Z,1013.17
2016-05-10T05:56:19.152Z,1013.11
2016-05-10T05:57:19.186Z,1013.21
2016-05-10T05:58:19.219Z,1013.14
2016-05-10T05:59:19.254Z,1013.11
2016-05-10T06:00:19.288Z,1013.15
2016-05-10T06:01:19.322Z,1013.12
2016-05-10T06:02:19.340Z,1013.11
2016-05-10T06:03:19.374Z,1013.18
2016-05-10T06:04:19.408Z,1013.16
2016-05-10T06:05:19.442Z,1013.12
2016-05-10T06:06:19.476Z,1013.16
2016-05-10T06:07:19.510Z,1013.15
2016-05-10T06:08:19.544Z,1013.17
2016-05-10T06:09:19.563Z,1013.2
2016-05-10T06:10:19.611Z,1013.16
2016-05-10T06:11:19.629Z,1013.16
2016-05-10T06:12:19.664Z,1013.16
2016-05-10T06:13:19.698Z,1013.21
2016-05-10T06:14:19.732Z,1013.16
2016-05-10T06:15:19.782Z,1013.22
2016-05-10T06:16:19.800Z,1013.26
2016-05-10T06:18:19.867Z,1013.19
2016-05-10T06:19:19.901Z,1013.23
2016-05-10T06:20:19.920Z,1013.25
2016-05-10T06:21:19.954Z,1013.27
2016-05-10T06:22:19.988Z,1013.32
2016-05-10T06:23:20.022Z,1013.32
2016-05-10T06:24:20.056Z,1013.25
2016-05-10T06:25:20.089Z,1013.3
2016-05-10T06:26:20.123Z,1013.3
2016-05-10T06:27:20.157Z,1013.28
2016-05-10T06:28:20.192Z,1013.28
2016-05-10T06:29:20.225Z,1013.38
2016-05-10T06:30:20.259Z,1013.3
2016-05-10T06:31:20.293Z,1013.3
2016-05-10T06:32:20.328Z,1013.26
2016-05-10T06:34:20.394Z,1013.32
2016-05-10T06:35:20.429Z,1013.26
2016-05-10T06:36:20.463Z,1013.33
2016-05-10T06:37:20.496Z,1013.3
2016-05-10T06:38:20.531Z,1013.36
2016-05-10T06:39:20.565Z,1013.27
2016-05-10T06:40:20.598Z,1013.29
2016-05-10T06:41:20.632Z,1013.34
2016-05-10T06:42:20.666Z,1013.35
2016-05-10T06:43:20.701Z,1013.38
2016-05-10T06:44:21.829Z,1013.33
2016-05-10T06:45:20.768Z,1013.34
2016-05-10T06:46:20.802Z,1013.38
2016-05-10T06:47:20.837Z,1013.39
2016-05-10T06:48:20.870Z,1013.42
2016-05-10T06:50:20.938Z,1013.3
2016-05-10T06:51:20.987Z,1013.34
2016-05-10T06:52:21.006Z,1013.33
2016-05-10T06:53:21.056Z,1013.36
2016-05-10T06:54:21.074Z,1013.35
2016-05-10T06:55:21.108Z,1013.28
2016-05-10T06:56:21.141Z,1013.29
2016-05-10T06:57:21.175Z,1013.3
2016-05-10T06:58:21.209Z,1013.21
2016-05-10T06:59:21.837Z,1013.18
2016-05-10T07:00:21.277Z,1013.23
2016-05-10T07:01:21.327Z,1013.23
2016-05-10T07:02:21.344Z,1013.25
2016-05-10T07:03:21.395Z,1013.21
2016-05-10T07:04:21.429Z,1013.19
2016-05-10T07:06:21.496Z,1013.2
2016-05-10T07:07:21.530Z,1013.18
2016-05-10T07:08:21.580Z,1013.2
2016-05-10T07:09:21.598Z,1013.15
2016-05-10T07:10:21.633Z,1013.18
2016-05-10T07:11:21.666Z,1013.11
2016-05-10T07:12:21.700Z,1013.19
2016-05-10T07:13:21.734Z,1013.14
2016-05-10T07:14:21.768Z,1013.1
2016-05-10T07:15:21.802Z,1013.14
2016-05-10T07:16:21.837Z,1013.12
2016-05-10T07:17:21.885Z,1013.12
2016-05-10T07:18:21.920Z,1013.14
2016-05-10T07:19:21.953Z,1013.14
2016-05-10T07:21:22.021Z,1013.15
2016-05-10T07:22:22.055Z,1013.12
2016-05-10T07:23:22.089Z,1013.08
2016-05-10T07:24:22.123Z,1013.11
2016-05-10T07:25:22.157Z,1013.07
2016-05-10T07:26:22.192Z,1013.13
2016-05-10T07:27:22.225Z,1013.05
2016-05-10T07:28:22.259Z,1013.07
2016-05-10T07:29:22.308Z,1012.96
2016-05-10T07:30:22.342Z,1013.04
2016-05-10T07:31:22.376Z,1013.03
2016-05-10T07:32:22.410Z,1012.97
2016-05-10T07:33:22.444Z,1013.04
2016-05-10T07:34:22.478Z,1012.78
2016-05-10T07:35:22.513Z,1012.99
2016-05-10T07:36:22.546Z,1012.91
2016-05-10T07:37:22.580Z,1012.91
2016-05-10T07:38:22.613Z,1012.96
2016-05-10T07:39:22.648Z,1012.95
2016-05-10T07:40:22.682Z,1012.89
2016-05-10T07:41:22.715Z,1012.93
2016-05-10T07:42:22.749Z,1012.9
2016-05-10T07:43:22.799Z,1012.87
2016-05-10T07:44:22.833Z,1012.9
2016-05-10T07:45:22.868Z,1012.97
2016-05-10T07:46:22.901Z,1012.92
2016-05-10T07:47:23.091Z,1012.94
2016-05-10T07:48:22.968Z,1012.91
2016-05-10T07:49:23.003Z,1012.85
2016-05-10T07:50:23.037Z,1012.92
2016-05-10T07:51:23.071Z,1012.86
2016-05-10T07:53:23.139Z,1012.85
2016-05-10T07:54:23.189Z,1012.84
2016-05-10T07:55:23.223Z,1012.86
2016-05-10T07:56:23.256Z,1012.93
2016-05-10T07:57:23.290Z,1012.81
2016-05-10T07:58:23.324Z,1012.8
2016-05-10T07:59:23.358Z,1012.81
2016-05-10T08:00:23.392Z,1012.78
2016-05-10T08:01:23.425Z,1012.93
2016-05-10T08:02:23.460Z,1012.78
2016-05-10T08:03:23.494Z,1012.81
2016-05-10T08:04:23.543Z,1012.86
2016-05-10T08:05:23.577Z,1012.77
2016-05-10T08:06:23.611Z,1012.89
2016-05-10T08:07:23.645Z,1012.85
2016-05-10T08:09:23.713Z,1012.76
2016-05-10T08:10:23.747Z,1012.8
2016-05-10T08:11:23.780Z,1012.8
2016-05-10T08:12:23.815Z,1012.74
2016-05-10T08:13:23.849Z,1012.74
2016-05-10T08:14:23.898Z,1012.71
2016-05-10T08:15:23.916Z,1012.72
2016-05-10T08:16:23.966Z,1012.7
2016-05-10T08:17:24.000Z,1012.71
2016-05-10T08:18:24.034Z,1012.78
2016-05-10T08:19:24.068Z,1012.73
2016-05-10T08:20:24.102Z,1012.73
2016-05-10T08:21:24.136Z,1012.66
2016-05-10T08:22:24.170Z,1012.72
2016-05-10T08:23:24.204Z,1012.68
2016-05-10T08:25:24.272Z,1012.67
2016-05-10T08:26:24.305Z,1012.62
2016-05-10T08:27:24.355Z,1012.63
2016-05-10T08:28:24.373Z,1012.64
2016-05-10T08:29:24.704Z,1012.6
2016-05-10T08:30:24.972Z,1012.69
2016-05-10T08:31:24.475Z,1012.67
2016-05-10T08:32:24.509Z,1012.66
2016-05-10T08:33:24.543Z,1012.68
2016-05-10T08:34:24.593Z,1012.63
2016-05-10T08:35:24.611Z,1012.61
2016-05-10T08:36:24.660Z,1012.51
2016-05-10T08:37:24.694Z,1012.53
2016-05-10T08:38:24.728Z,1012.53
2016-05-10T08:39:24.762Z,1012.52
2016-05-10T08:41:24.830Z,1012.58
2016-05-10T08:42:24.863Z,1012.46
2016-05-10T08:43:24.898Z,1012.5
2016-05-10T08:44:24.932Z,1012.54
2016-05-10T08:45:24.966Z,1012.47
2016-05-10T08:46:24.999Z,1012.53
2016-05-10T08:47:25.034Z,1012.55
2016-05-10T08:48:25.068Z,1012.5
2016-05-10T08:49:25.102Z,1012.47
2016-05-10T08:50:25.135Z,1012.48
2016-05-10T08:51:25.170Z,1012.61
2016-05-10T08:52:25.220Z,1012.43
2016-05-10T08:53:25.238Z,1012.44
2016-05-10T08:54:25.287Z,1012.45
2016-05-10T08:56:25.356Z,1012.42
2016-05-10T08:57:25.404Z,1012.42
2016-05-10T08:58:25.439Z,1012.46
2016-05-10T08:59:25.456Z,1012.49
2016-05-10T09:00:25.491Z,1012.46
2016-05-10T09:01:25.525Z,1012.44
2016-05-10T09:02:25.558Z,1012.4
2016-05-10T09:03:25.592Z,1012.41
2016-05-10T09:04:25.626Z,1012.53
2016-05-10T09:05:25.660Z,1012.43
2016-05-10T09:06:25.695Z,1012.36
2016-05-10T09:07:25.744Z,1012.34
2016-05-10T09:08:25.763Z,1012.33
2016-05-10T09:09:25.797Z,1012.41
2016-05-10T09:10:25.830Z,1012.28
2016-05-10T09:11:25.864Z,1012.29
2016-05-10T09:12:25.899Z,1012.23
2016-05-10T09:13:33.447Z,1012.24
2016-05-10T09:14:25.982Z,1012.32
2016-05-10T09:15:26.016Z,1012.3
2016-05-10T09:16:26.049Z,1012.23
2016-05-10T09:17:26.083Z,1012.27
2016-05-10T09:18:26.118Z,1012.2
2016-05-10T09:19:26.188Z,1012.27
2016-05-10T09:20:26.264Z,1012.28
2016-05-10T09:21:26.339Z,1012.22
2016-05-10T09:22:26.415Z,1012.29
2016-05-10T09:23:26.490Z,1012.23
2016-05-10T09:24:26.557Z,1012.22
2016-05-10T09:25:26.590Z,1012.24
2016-05-10T09:26:26.640Z,1012.26
2016-05-10T09:28:26.753Z,1012.14
2016-05-10T09:29:26.793Z,1012.14
2016-05-10T09:30:26.833Z,1012.04
2016-05-10T09:31:26.872Z,1012.09
2016-05-10T09:32:26.912Z,1012.09
2016-05-10T09:33:26.950Z,1012.09
2016-05-10T09:34:26.987Z,1012.1
2016-05-10T09:35:27.023Z,1012.06
2016-05-10T09:36:27.058Z,1012
2016-05-10T09:37:27.094Z,1011.94
2016-05-10T09:38:27.130Z,1012.04
2016-05-10T09:39:27.165Z,1011.97
2016-05-10T09:40:27.215Z,1011.95
2016-05-10T09:41:27.250Z,1011.98
2016-05-10T09:42:27.285Z,1012.05
2016-05-10T09:44:27.353Z,1011.93
2016-05-10T09:45:27.389Z,1011.95
2016-05-10T09:46:27.422Z,1011.95
2016-05-10T09:47:27.457Z,1011.92
2016-05-10T09:48:27.491Z,1011.96
2016-05-10T09:49:27.525Z,1011.97
2016-05-10T09:50:27.559Z,1011.84
2016-05-10T09:51:27.608Z,1011.83
2016-05-10T09:52:27.642Z,1011.85
2016-05-10T09:53:27.676Z,1011.83
2016-05-10T09:54:27.711Z,1011.9
2016-05-10T09:55:27.744Z,1011.8
2016-05-10T09:56:27.778Z,1011.87
2016-05-10T09:57:27.812Z,1011.9
2016-05-10T09:58:27.846Z,1011.97
2016-05-10T10:00:27.914Z,1011.81
2016-05-10T10:01:27.964Z,1011.82
2016-05-10T10:02:27.997Z,1011.81
2016-05-10T10:03:28.031Z,1011.87
2016-05-10T10:04:28.066Z,1011.87
2016-05-10T10:05:28.099Z,1011.8
2016-05-10T10:06:28.133Z,1011.77
2016-05-10T10:07:28.167Z,1011.78
2016-05-10T10:08:28.201Z,1011.78
2016-05-10T10:09:28.236Z,1011.81
2016-05-10T10:10:28.269Z,1011.82
2016-05-10T10:11:28.319Z,1011.73
2016-05-10T10:12:28.353Z,1011.67
2016-05-10T10:13:28.387Z,1011.7
2016-05-10T10:14:28.436Z,1011.65
2016-05-10T10:16:28.488Z,1011.6
2016-05-10T10:17:28.523Z,1011.53
2016-05-10T10:18:28.571Z,1011.6
2016-05-10T10:19:28.606Z,1011.61
2016-05-10T10:20:28.639Z,1011.52
2016-05-10T10:21:28.674Z,1011.67
2016-05-10T10:22:28.707Z,1011.61
2016-05-10T10:23:28.742Z,1011.55
2016-05-10T10:24:28.775Z,1011.49
2016-05-10T10:25:28.810Z,1011.5
2016-05-10T10:26:28.843Z,1011.49
2016-05-10T10:27:28.893Z,1011.42
2016-05-10T10:28:28.928Z,1011.45
2016-05-10T10:29:28.961Z,1011.44
2016-05-10T10:31:29.028Z,1011.51
2016-05-10T10:32:29.078Z,1011.43
2016-05-10T10:33:29.112Z,1011.43
2016-05-10T10:34:29.146Z,1011.49
2016-05-10T10:35:29.180Z,1011.49
2016-05-10T10:36:29.214Z,1011.36
2016-05-10T10:37:29.263Z,1011.43
2016-05-10T10:38:29.297Z,1011.56
2016-05-10T10:39:29.316Z,1011.4
2016-05-10T10:40:29.365Z,1011.47
2016-05-10T10:41:29.400Z,1011.39
2016-05-10T10:42:29.433Z,1011.4
2016-05-10T10:43:29.468Z,1011.33
2016-05-10T10:44:29.502Z,1011.34
2016-05-10T10:45:29.535Z,1011.31
2016-05-10T10:46:29.569Z,1011.14
2016-05-10T10:47:29.619Z,1011.29
2016-05-10T10:48:29.637Z,1011.31
2016-05-10T10:49:29.686Z,1011.34
2016-05-10T10:50:29.721Z,1011.31
2016-05-10T10:51:29.755Z,1011.4
2016-05-10T10:52:29.788Z,1011.23
2016-05-10T10:53:29.823Z,1011.29
2016-05-10T10:54:29.856Z,1011.21
2016-05-10T10:55:29.906Z,1011.27
2016-05-10T10:56:29.939Z,1011.26
2016-05-10T10:57:29.973Z,1011.25
2016-05-10T10:58:30.008Z,1011.24
2016-05-10T10:59:30.042Z,1011.21
2016-05-10T11:00:30.076Z,1011.21
2016-05-10T11:01:30.109Z,1011.18
2016-05-10T11:03:30.193Z,1011.25
2016-05-10T11:04:30.228Z,1011.27
2016-05-10T11:05:30.261Z,1011.32
2016-05-10T11:06:30.295Z,1011.24
2016-05-10T11:07:30.328Z,1011.2
2016-05-10T11:08:30.363Z,1011.23
2016-05-10T11:09:30.396Z,1011.25
2016-05-10T11:10:30.446Z,1011.25
2016-05-10T11:11:30.480Z,1011.27
2016-05-10T11:12:30.514Z,1011.37
2016-05-10T11:13:30.548Z,1011.39
2016-05-10T11:14:30.597Z,1011.45
2016-05-10T11:15:30.632Z,1011.53
2016-05-10T11:16:30.665Z,1011.54
2016-05-10T11:17:30.699Z,1011.58
2016-05-10T11:19:30.768Z,1011.62
2016-05-10T11:20:30.801Z,1011.63
2016-05-10T11:21:30.835Z,1011.68
2016-05-10T11:22:30.885Z,1011.63
2016-05-10T11:23:30.919Z,1011.61
2016-05-10T11:24:30.953Z,1011.63
2016-05-10T11:25:30.987Z,1011.64
2016-05-10T11:26:31.021Z,1011.6
2016-05-10T11:27:31.054Z,1011.59
2016-05-10T11:28:31.089Z,1011.58
2016-05-10T11:29:31.123Z,1011.55
2016-05-10T11:30:31.172Z,1011.52
2016-05-10T11:31:31.206Z,1011.51
2016-05-10T11:32:31.239Z,1011.55
2016-05-10T11:33:31.273Z,1011.53
2016-05-10T11:35:31.341Z,1011.53
2016-05-10T11:36:31.375Z,1011.53
2016-05-10T11:37:31.425Z,1011.55
2016-05-10T11:38:31.458Z,1011.58
2016-05-10T11:39:31.493Z,1011.73
2016-05-10T11:40:31.527Z,1011.77
2016-05-10T11:41:31.561Z,1011.74
2016-05-10T11:42:31.595Z,1011.78
2016-05-10T11:43:31.629Z,1011.89
2016-05-10T11:44:31.834Z,1011.8
2016-05-10T11:45:31.697Z,1011.72
2016-05-10T11:46:31.731Z,1011.89
2016-05-10T11:47:31.765Z,1011.97
2016-05-10T11:48:31.799Z,1011.85
2016-05-10T11:49:31.832Z,1011.81
2016-05-10T11:51:31.901Z,1011.77
2016-05-10T11:52:31.934Z,1011.82
2016-05-10T11:53:31.968Z,1011.79
2016-05-10T11:54:32.002Z,1011.78
2016-05-10T11:55:32.036Z,1011.54
2016-05-10T11:56:32.070Z,1011.47
2016-05-10T11:57:32.104Z,1011.27
2016-05-10T11:58:32.137Z,1010.89
2016-05-10T11:59:32.172Z,1010.45
2016-05-10T12:00:32.206Z,1010.41
2016-05-10T12:01:32.239Z,1010.36
2016-05-10T12:02:32.273Z,1010.26
2016-05-10T12:03:32.307Z,1010.29
2016-05-10T12:04:32.341Z,1010.28
2016-05-10T12:06:32.409Z,1010.26
2016-05-10T12:07:32.444Z,1010.24
2016-05-10T12:08:32.477Z,1010.18
2016-05-10T12:09:32.511Z,1010.18
2016-05-10T12:10:32.545Z,1010.2
2016-05-10T12:11:32.580Z,1010.17
2016-05-10T12:12:32.613Z,1010.2
2016-05-10T12:13:32.647Z,1010.22
2016-05-10T12:14:32.681Z,1010.11
2016-05-10T12:15:32.699Z,1010.3
2016-05-10T12:16:32.733Z,1010.22
2016-05-10T12:17:32.767Z,1010.07
2016-05-10T12:18:32.801Z,1010.1
2016-05-10T12:19:32.835Z,1010.18
2016-05-10T12:20:32.854Z,1010.04
2016-05-10T12:21:32.887Z,1009.93
2016-05-10T12:22:32.921Z,1009.99
2016-05-10T12:23:32.955Z,1009.92
2016-05-10T12:24:32.989Z,1009.97
2016-05-10T12:25:33.008Z,1009.99
2016-05-10T12:26:33.041Z,1010.03
2016-05-10T12:27:33.075Z,1010.05
2016-05-10T12:28:33.110Z,1010.04
2016-05-10T12:29:33.143Z,1009.95
2016-05-10T12:30:33.162Z,1009.94
2016-05-10T12:31:33.196Z,1010.09
2016-05-10T12:32:33.213Z,1009.9
2016-05-10T12:33:33.248Z,1009.96
2016-05-10T12:34:33.282Z,1009.91
2016-05-10T12:35:33.315Z,1009.96
2016-05-10T12:36:33.334Z,1009.9
2016-05-10T12:38:33.402Z,1009.81
2016-05-10T12:39:33.420Z,1009.81
2016-05-10T12:40:33.453Z,1009.75
2016-05-10T12:41:33.488Z,1009.76
2016-05-10T12:42:33.506Z,1009.8
2016-05-10T12:43:33.541Z,1009.79
2016-05-10T12:44:33.574Z,1009.83
2016-05-10T12:45:33.592Z,1009.87
2016-05-10T12:46:33.641Z,1009.88
2016-05-10T12:47:33.661Z,1009.82
2016-05-10T12:48:33.679Z,1009.9